createdAt,value
2022-11-19T00:01:15.703Z,88.79
2022-11-19T00:03:45.659Z,88.43
2022-11-19T00:06:18.061Z,88.58
2022-11-19T00:08:45.821Z,88.69
2022-11-19T00:11:44.628Z,88.51
2022-11-19T00:14:13.429Z,88.75
2022-11-19T00:16:40.446Z,89.03
2022-11-19T00:19:07.180Z,89.20
2022-11-19T00:21:34.021Z,89.01
2022-11-19T00:24:00.549Z,89.12
2022-11-19T00:26:27.639Z,89.17
2022-11-19T00:28:55.239Z,89.11
2022-11-19T00:31:21.846Z,89.43
2022-11-19T00:33:50.587Z,89.35
2022-11-19T00:36:17.664Z,89.32
2022-11-19T00:38:44.245Z,89.56
2022-11-19T00:41:11.595Z,89.48
2022-11-19T00:43:47.149Z,89.22
2022-11-19T00:46:25.173Z,89.80
2022-11-19T00:48:54.116Z,89.59
2022-11-19T00:51:22.340Z,89.75
2022-11-19T00:53:49.315Z,89.76
2022-11-19T00:56:18.242Z,90.00
2022-11-19T00:58:46.019Z,89.95
2022-11-19T01:01:14.372Z,90.04
2022-11-19T01:03:42.404Z,90.15
2022-11-19T01:06:09.876Z,89.81
2022-11-19T01:08:37.406Z,89.89
2022-11-19T01:11:15.208Z,90.12
2022-11-19T01:13:42.624Z,90.10
2022-11-19T01:16:13.376Z,90.20
2022-11-19T01:18:41.512Z,90.40
2022-11-19T01:21:10.789Z,90.07
2022-11-19T01:23:39.205Z,90.53
2022-11-19T01:26:06.224Z,90.20
2022-11-19T01:28:32.849Z,90.30
2022-11-19T01:30:59.771Z,90.46
2022-11-19T01:33:26.505Z,90.38
2022-11-19T01:36:01.317Z,90.59
2022-11-19T01:38:29.180Z,90.46
2022-11-19T01:40:56.745Z,90.15
2022-11-19T01:43:43.895Z,90.49
2022-11-19T01:46:13.173Z,90.70
2022-11-19T01:49:06.299Z,90.53
2022-11-19T01:51:38.507Z,90.40
2022-11-19T01:54:12.768Z,90.27
2022-11-19T01:56:39.665Z,90.55
2022-11-19T01:59:11.253Z,90.69
2022-11-19T02:01:37.883Z,90.67
2022-11-19T02:04:06.309Z,90.57
2022-11-19T02:06:33.961Z,90.80
2022-11-19T02:09:00.698Z,90.67
2022-11-19T02:12:05.723Z,90.73
2022-11-19T02:14:35.160Z,90.66
2022-11-19T02:17:33.372Z,90.84
2022-11-19T02:20:28.732Z,90.79
2022-11-19T02:23:13.268Z,90.76
2022-11-19T02:25:58.561Z,90.83
2022-11-19T02:28:40.712Z,90.94
2022-11-19T02:31:21.914Z,90.78
2022-11-19T02:34:01.343Z,90.85
2022-11-19T02:36:50.182Z,91.07
2022-11-19T02:39:35.391Z,90.69
2022-11-19T02:42:10.576Z,90.60
2022-11-19T02:44:58.807Z,90.70
2022-11-19T02:47:34.179Z,91.20
2022-11-19T02:50:10.962Z,91.35
2022-11-19T02:52:43.870Z,90.74
2022-11-19T02:55:18.933Z,90.85
2022-11-19T02:57:57.611Z,91.08
2022-11-19T03:00:43.453Z,91.26
2022-11-19T03:03:35.611Z,91.42
2022-11-19T03:06:11.854Z,91.34
2022-11-19T03:08:39.064Z,91.51
2022-11-19T03:11:26.569Z,91.58
2022-11-19T03:14:20.977Z,91.65
2022-11-19T03:16:58.605Z,91.61
2022-11-19T03:19:36.671Z,91.62
2022-11-19T03:22:10.050Z,91.60
2022-11-19T03:24:41.879Z,91.68
2022-11-19T03:27:16.196Z,91.56
2022-11-19T03:29:50.571Z,91.66
2022-11-19T03:32:22.639Z,91.84
2022-11-19T03:34:56.344Z,91.76
2022-11-19T03:37:25.357Z,91.80
2022-11-19T03:39:53.955Z,91.88
2022-11-19T03:42:22.180Z,92.18
2022-11-19T03:44:54.542Z,92.01
2022-11-19T03:47:37.089Z,92.34
2022-11-19T03:50:18.962Z,92.26
2022-11-19T03:52:45.611Z,92.63
2022-11-19T03:55:12.639Z,92.60
2022-11-19T03:57:39.672Z,92.31
2022-11-19T04:00:06.722Z,92.32
2022-11-19T04:02:40.025Z,92.25
2022-11-19T04:05:06.959Z,92.55
2022-11-19T04:07:33.871Z,92.90
2022-11-19T04:10:00.570Z,92.99
2022-11-19T04:12:27.104Z,92.78
2022-11-19T04:14:53.781Z,92.84
2022-11-19T04:17:20.737Z,92.66
2022-11-19T04:19:47.548Z,93.00
2022-11-19T04:22:14.062Z,93.24
2022-11-19T04:24:40.624Z,93.26
2022-11-19T04:27:07.193Z,93.04
2022-11-19T04:29:33.780Z,93.31
2022-11-19T04:32:00.364Z,93.04
2022-11-19T04:34:27.016Z,93.41
2022-11-19T04:36:53.886Z,93.27
2022-11-19T04:39:20.973Z,93.63
2022-11-19T04:41:47.818Z,92.81
2022-11-19T04:44:14.376Z,93.27
2022-11-19T04:46:40.941Z,93.05
2022-11-19T04:49:07.473Z,92.94
2022-11-19T04:51:34.123Z,92.98
2022-11-19T04:54:00.958Z,93.35
2022-11-19T04:56:27.801Z,93.26
2022-11-19T04:58:54.374Z,93.59
2022-11-19T05:01:21.220Z,93.35
2022-11-19T05:03:48.475Z,93.35
2022-11-19T05:06:15.066Z,93.15
2022-11-19T05:08:41.770Z,93.43
2022-11-19T05:11:08.516Z,93.34
2022-11-19T05:13:35.234Z,93.13
2022-11-19T05:16:02.058Z,93.07
2022-11-19T05:18:28.660Z,93.16
2022-11-19T05:20:55.371Z,93.70
2022-11-19T05:23:22.411Z,93.24
2022-11-19T05:25:49.291Z,93.07
2022-11-19T05:28:15.878Z,92.94
2022-11-19T05:30:42.615Z,93.51
2022-11-19T05:33:09.288Z,93.01
2022-11-19T05:35:35.890Z,92.95
2022-11-19T05:38:02.776Z,92.89
2022-11-19T05:40:29.415Z,92.39
2022-11-19T05:42:56.095Z,92.40
2022-11-19T05:45:23.480Z,92.39
2022-11-19T05:47:54.888Z,92.33
2022-11-19T05:50:21.409Z,92.17
2022-11-19T05:52:50.522Z,92.20
2022-11-19T05:55:17.516Z,92.19
2022-11-19T05:57:44.209Z,92.40
2022-11-19T06:00:11.820Z,92.32
2022-11-19T06:02:41.390Z,92.39
2022-11-19T06:05:08.405Z,92.16
2022-11-19T06:07:35.096Z,92.15
2022-11-19T06:10:05.323Z,92.74
2022-11-19T06:12:31.910Z,92.30
2022-11-19T06:14:59.273Z,92.24
2022-11-19T06:17:25.854Z,92.33
2022-11-19T06:19:52.479Z,92.34
2022-11-19T06:22:19.246Z,92.36
2022-11-19T06:24:45.946Z,92.17
2022-11-19T06:27:12.695Z,92.18
2022-11-19T06:29:39.196Z,91.74
2022-11-19T06:32:05.878Z,92.21
2022-11-19T06:34:32.443Z,92.23
2022-11-19T06:36:59.096Z,91.74
2022-11-19T06:39:25.768Z,91.88
2022-11-19T06:41:52.413Z,91.97
2022-11-19T06:44:19.285Z,92.20
2022-11-19T06:46:46.405Z,92.24
2022-11-19T06:49:18.411Z,91.94
2022-11-19T06:51:47.585Z,91.96
2022-11-19T06:54:14.163Z,92.42
2022-11-19T06:56:40.937Z,92.16
2022-11-19T06:59:07.502Z,92.31
2022-11-19T07:01:34.320Z,92.47
2022-11-19T07:04:01.256Z,92.31
2022-11-19T07:06:27.768Z,92.43
2022-11-19T07:08:54.291Z,92.15
2022-11-19T07:11:26.825Z,92.41
2022-11-19T07:13:58.016Z,91.98
2022-11-19T07:16:33.405Z,91.89
2022-11-19T07:19:02.852Z,92.06
2022-11-19T07:21:30.093Z,91.98
2022-11-19T07:23:58.210Z,91.96
2022-11-19T07:26:25.559Z,92.06
2022-11-19T07:28:52.875Z,92.04
2022-11-19T07:31:24.514Z,92.14
2022-11-19T07:33:51.074Z,92.54
2022-11-19T07:36:18.675Z,92.52
2022-11-19T07:38:46.346Z,92.73
2022-11-19T07:41:32.678Z,93.17
2022-11-19T07:43:59.264Z,92.52
2022-11-19T07:46:25.908Z,92.66
2022-11-19T07:48:56.879Z,92.74
2022-11-19T07:51:26.766Z,92.30
2022-11-19T07:53:57.712Z,92.52
2022-11-19T07:56:25.034Z,92.71
2022-11-19T07:58:52.438Z,92.64
2022-11-19T08:01:24.142Z,92.59
2022-11-19T08:03:56.375Z,92.29
2022-11-19T08:06:26.068Z,92.69
2022-11-19T08:08:55.032Z,92.37
2022-11-19T08:11:22.161Z,92.47
2022-11-19T08:13:49.106Z,92.44
2022-11-19T08:16:35.980Z,92.69
2022-11-19T08:19:04.382Z,92.95
2022-11-19T08:21:31.079Z,93.17
2022-11-19T08:23:57.994Z,93.21
2022-11-19T08:26:24.839Z,93.45
2022-11-19T08:28:51.714Z,93.86
2022-11-19T08:31:18.430Z,94.04
2022-11-19T08:33:46.589Z,93.82
2022-11-19T08:36:15.853Z,93.69
2022-11-19T08:38:42.519Z,93.88
2022-11-19T08:41:27.783Z,93.74
2022-11-19T08:43:54.806Z,93.94
2022-11-19T08:46:21.488Z,93.64
2022-11-19T08:48:48.128Z,93.94
2022-11-19T08:51:16.549Z,94.29
2022-11-19T08:53:43.640Z,93.81
2022-11-19T08:56:14.024Z,94.01
2022-11-19T08:58:45.445Z,93.96
2022-11-19T09:01:14.075Z,93.91
2022-11-19T09:03:41.225Z,93.90
2022-11-19T09:06:08.321Z,93.91
2022-11-19T09:08:35.810Z,94.07
2022-11-19T09:11:14.288Z,94.32
2022-11-19T09:13:41.934Z,94.28
2022-11-19T09:16:09.958Z,94.29
2022-11-19T09:18:39.253Z,94.16
2022-11-19T09:21:07.803Z,94.03
2022-11-19T09:23:34.330Z,94.29
2022-11-19T09:26:03.619Z,93.86
2022-11-19T09:28:31.308Z,93.45
2022-11-19T09:31:02.195Z,93.35
2022-11-19T09:33:34.444Z,92.88
2022-11-19T09:36:01.443Z,93.07
2022-11-19T09:38:28.097Z,92.91
2022-11-19T09:40:56.806Z,92.54
2022-11-19T09:43:49.202Z,91.95
2022-11-19T09:46:36.847Z,92.31
2022-11-19T09:49:11.876Z,92.02
2022-11-19T09:51:42.675Z,91.29
2022-11-19T09:54:18.973Z,90.72
2022-11-19T09:56:47.609Z,90.47
2022-11-19T09:59:27.300Z,90.66
2022-11-19T10:01:56.638Z,90.61
2022-11-19T10:04:26.140Z,90.38
2022-11-19T10:07:01.819Z,90.42
2022-11-19T10:09:44.639Z,90.21
2022-11-19T10:12:20.675Z,89.52
2022-11-19T10:15:11.008Z,89.18
2022-11-19T10:18:02.458Z,88.73
2022-11-19T10:20:50.761Z,88.49
2022-11-19T10:23:20.623Z,88.25
2022-11-19T10:25:50.341Z,87.39
2022-11-19T10:28:25.648Z,86.78
2022-11-19T10:30:55.796Z,86.77
2022-11-19T10:33:32.682Z,86.53
2022-11-19T10:36:06.879Z,85.79
2022-11-19T10:38:40.572Z,85.43
2022-11-19T10:41:23.391Z,84.45
2022-11-19T10:43:59.752Z,82.43
2022-11-19T10:46:28.617Z,83.01
2022-11-19T10:48:58.394Z,83.28
2022-11-19T10:51:33.666Z,82.86
2022-11-19T10:54:04.356Z,83.26
2022-11-19T10:56:40.266Z,83.12
2022-11-19T10:59:12.375Z,82.86
2022-11-19T11:01:45.087Z,82.28
2022-11-19T11:04:26.209Z,81.64
2022-11-19T11:06:58.495Z,81.44
2022-11-19T11:09:37.027Z,81.32
2022-11-19T11:12:40.752Z,81.29
2022-11-19T11:15:15.734Z,80.71
2022-11-19T11:17:44.641Z,80.86
2022-11-19T11:20:14.120Z,79.71
2022-11-19T11:22:40.880Z,79.69
2022-11-19T11:25:27.226Z,79.88
2022-11-19T11:28:17.783Z,79.66
2022-11-19T11:31:00.953Z,78.44
2022-11-19T11:33:32.604Z,78.38
2022-11-19T11:36:03.437Z,77.36
2022-11-19T11:38:30.957Z,77.43
2022-11-19T11:41:35.300Z,78.84
2022-11-19T11:44:02.516Z,79.12
2022-11-19T11:46:51.180Z,78.59
2022-11-19T11:49:43.277Z,79.28
2022-11-19T11:52:09.872Z,78.75
2022-11-19T11:54:37.515Z,78.61
2022-11-19T11:57:25.162Z,78.17
2022-11-19T11:59:52.234Z,76.72
2022-11-19T12:02:21.250Z,77.19
2022-11-19T12:04:50.094Z,76.77
2022-11-19T12:07:51.574Z,76.93
2022-11-19T12:10:26.717Z,74.92
2022-11-19T12:13:44.407Z,75.63
2022-11-19T12:16:26.583Z,73.49
2022-11-19T12:19:24.721Z,72.36
2022-11-19T12:22:00.555Z,72.35
2022-11-19T12:24:30.133Z,72.35
2022-11-19T12:27:08.494Z,72.59
2022-11-19T12:29:38.049Z,71.75
2022-11-19T12:32:19.680Z,71.94
2022-11-19T12:34:55.092Z,71.19
2022-11-19T12:37:49.337Z,70.40
2022-11-19T12:40:42.407Z,71.12
2022-11-19T12:43:34.091Z,71.11
2022-11-19T12:46:25.149Z,71.75
2022-11-19T12:49:09.423Z,71.14
2022-11-19T12:51:44.335Z,71.48
2022-11-19T12:54:27.858Z,71.48
2022-11-19T12:57:19.187Z,71.08
2022-11-19T13:00:18.815Z,71.32
2022-11-19T13:03:12.370Z,70.51
2022-11-19T13:06:02.738Z,69.94
2022-11-19T13:08:49.847Z,70.26
2022-11-19T13:11:36.717Z,68.48
2022-11-19T13:14:11.338Z,68.77
2022-11-19T13:16:38.012Z,69.07
2022-11-19T13:19:20.208Z,68.72
2022-11-19T13:21:55.984Z,69.26
2022-11-19T13:24:35.236Z,69.43
2022-11-19T13:27:05.390Z,68.42
2022-11-19T13:29:54.261Z,68.75
2022-11-19T13:32:44.234Z,68.81
2022-11-19T13:35:18.582Z,68.38
2022-11-19T13:37:58.273Z,69.01
2022-11-19T13:40:37.268Z,68.32
2022-11-19T13:43:32.072Z,69.12
2022-11-19T13:46:16.540Z,69.11
2022-11-19T13:48:54.710Z,69.60
2022-11-19T13:51:39.155Z,69.89
2022-11-19T13:54:08.243Z,69.74
2022-11-19T13:56:40.425Z,70.16
2022-11-19T13:59:08.543Z,70.15
2022-11-19T14:01:55.906Z,70.93
2022-11-19T14:04:32.692Z,71.35
2022-11-19T14:06:59.302Z,72.04
2022-11-19T14:09:46.115Z,72.59
2022-11-19T14:12:34.640Z,72.11
2022-11-19T14:15:46.464Z,72.79
2022-11-19T14:18:43.327Z,72.58
2022-11-19T14:21:44.262Z,72.78
2022-11-19T14:24:45.051Z,72.95
2022-11-19T14:27:20.891Z,72.72
2022-11-19T14:29:47.348Z,73.25
2022-11-19T14:32:13.772Z,72.97
2022-11-19T14:39:53.955Z,72.77
2022-11-19T14:42:21.912Z,72.93
2022-11-19T14:45:04.077Z,73.06
2022-11-19T14:47:43.349Z,73.23
2022-11-19T14:50:26.008Z,73.30
2022-11-19T14:52:56.094Z,73.22
2022-11-19T14:55:26.062Z,73.27
2022-11-19T14:58:02.411Z,73.52
2022-11-19T15:00:28.996Z,74.16
2022-11-19T15:02:56.784Z,74.32
2022-11-19T15:05:31.299Z,74.32
2022-11-19T15:08:43.141Z,74.58
2022-11-19T15:11:14.421Z,74.64
2022-11-19T15:13:48.999Z,75.02
2022-11-19T15:16:27.769Z,75.51
2022-11-19T15:19:00.326Z,75.65
2022-11-19T15:21:51.132Z,75.93
2022-11-19T15:24:27.213Z,76.63
2022-11-19T15:26:53.861Z,76.53
2022-11-19T15:30:05.235Z,77.23
2022-11-19T15:32:50.426Z,78.14
2022-11-19T15:35:30.932Z,78.40
2022-11-19T15:38:04.325Z,78.71
2022-11-19T15:40:36.269Z,78.96
2022-11-19T15:43:15.146Z,78.79
2022-11-19T15:46:03.597Z,79.01
2022-11-19T15:48:32.946Z,79.52
2022-11-19T15:51:01.172Z,80.00
2022-11-19T15:53:28.293Z,79.42
2022-11-19T15:55:59.836Z,80.00
2022-11-19T15:58:36.913Z,80.02
2022-11-19T16:01:04.487Z,80.57
2022-11-19T16:03:32.535Z,81.06
2022-11-19T16:06:03.631Z,80.91
2022-11-19T16:08:30.676Z,81.32
2022-11-19T16:11:20.579Z,81.49
2022-11-19T16:14:10.952Z,82.33
2022-11-19T16:16:56.490Z,82.16
2022-11-19T16:19:23.773Z,82.26
2022-11-19T16:21:58.879Z,82.32
2022-11-19T16:24:46.266Z,82.24
2022-11-19T16:27:20.529Z,82.20
2022-11-19T16:29:47.224Z,82.08
2022-11-19T16:32:21.821Z,81.92
2022-11-19T16:34:48.558Z,81.90
2022-11-19T16:37:21.774Z,81.79
2022-11-19T16:39:53.228Z,81.59
2022-11-19T16:42:26.807Z,82.02
2022-11-19T16:45:08.451Z,82.48
2022-11-19T16:47:40.037Z,82.27
2022-11-19T16:50:29.551Z,82.69
2022-11-19T16:52:56.383Z,82.73
2022-11-19T16:55:25.910Z,82.94
2022-11-19T16:57:56.874Z,82.67
2022-11-19T17:00:28.536Z,82.77
2022-11-19T17:02:55.410Z,83.05
2022-11-19T17:05:24.864Z,82.78
2022-11-19T17:08:05.764Z,83.08
2022-11-19T17:10:34.161Z,83.29
2022-11-19T17:13:28.255Z,83.46
2022-11-19T17:15:55.153Z,83.89
2022-11-19T17:18:34.449Z,83.51
2022-11-19T17:21:08.998Z,83.33
2022-11-19T17:23:48.259Z,83.60
2022-11-19T17:26:22.500Z,83.27
2022-11-19T17:28:52.243Z,83.11
2022-11-19T17:31:27.400Z,83.71
2022-11-19T17:34:07.344Z,83.78
2022-11-19T17:36:34.083Z,83.03
2022-11-19T17:39:00.733Z,83.42
2022-11-19T17:41:48.317Z,83.11
2022-11-19T17:44:34.679Z,83.46
2022-11-19T17:47:07.383Z,83.30
2022-11-19T17:49:45.805Z,82.93
2022-11-19T17:52:24.685Z,83.15
2022-11-19T17:54:53.942Z,83.19
2022-11-19T17:57:20.768Z,83.35
2022-11-19T17:59:47.430Z,82.82
2022-11-19T18:02:17.029Z,83.01
2022-11-19T18:04:45.306Z,83.33
2022-11-19T18:07:12.575Z,83.22
2022-11-19T18:09:40.561Z,83.08
2022-11-19T18:12:12.517Z,83.57
2022-11-19T18:14:39.200Z,83.26
2022-11-19T18:17:06.004Z,83.12
2022-11-19T18:19:33.789Z,83.59
2022-11-19T18:22:00.469Z,83.22
2022-11-19T18:24:27.326Z,83.38
2022-11-19T18:26:54.031Z,83.41
2022-11-19T18:29:21.192Z,83.30
2022-11-19T18:31:50.892Z,83.06
2022-11-19T18:34:20.484Z,83.18
2022-11-19T18:36:47.187Z,83.07
2022-11-19T18:39:14.601Z,83.15
2022-11-19T18:41:41.857Z,83.15
2022-11-19T18:44:32.485Z,83.05
2022-11-19T18:47:03.941Z,83.25
2022-11-19T18:49:30.852Z,82.89
2022-11-19T18:51:57.494Z,82.53
2022-11-19T18:54:24.191Z,82.62
2022-11-19T18:56:51.062Z,82.64
2022-11-19T18:59:18.327Z,83.07
2022-11-19T19:01:45.404Z,83.17
2022-11-19T19:04:14.430Z,83.19
2022-11-19T19:06:41.861Z,82.59
2022-11-19T19:09:10.362Z,82.67
2022-11-19T19:11:56.932Z,83.00
2022-11-19T19:14:23.520Z,83.27
2022-11-19T19:16:51.009Z,83.46
2022-11-19T19:19:19.992Z,83.50
2022-11-19T19:21:47.409Z,83.88
2022-11-19T19:24:14.551Z,83.92
2022-11-19T19:26:41.661Z,84.23
2022-11-19T19:29:08.506Z,84.49
2022-11-19T19:31:36.169Z,84.66
2022-11-19T19:34:03.319Z,84.41
2022-11-19T19:36:30.397Z,84.70
2022-11-19T19:38:57.166Z,84.50
2022-11-19T19:41:26.104Z,85.14
2022-11-19T19:43:54.764Z,85.04
2022-11-19T19:46:23.559Z,84.80
2022-11-19T19:48:52.478Z,85.44
2022-11-19T19:51:21.103Z,85.50
2022-11-19T19:53:48.389Z,85.30
2022-11-19T19:56:19.093Z,85.78
2022-11-19T19:58:47.120Z,85.60
2022-11-19T20:01:16.757Z,85.81
2022-11-19T20:03:44.755Z,85.53
2022-11-19T20:06:13.422Z,85.98
2022-11-19T20:08:40.899Z,86.39
2022-11-19T20:11:13.486Z,86.46
2022-11-19T20:13:40.946Z,85.99
2022-11-19T20:16:14.576Z,86.56
2022-11-19T20:18:45.688Z,86.59
2022-11-19T20:21:15.561Z,86.74
2022-11-19T20:23:42.697Z,86.61
2022-11-19T20:26:18.002Z,86.67
2022-11-19T20:28:45.401Z,86.91
2022-11-19T20:31:18.418Z,87.36
2022-11-19T20:33:46.621Z,87.22
2022-11-19T20:36:15.718Z,87.31
2022-11-19T20:38:44.260Z,87.51
2022-11-19T20:41:33.368Z,88.11
2022-11-19T20:44:20.343Z,87.78
2022-11-19T20:46:47.237Z,88.31
2022-11-19T20:49:16.941Z,87.97
2022-11-19T20:51:45.188Z,88.60
2022-11-19T20:54:12.276Z,88.17
2022-11-19T20:56:39.980Z,88.69
2022-11-19T20:59:06.921Z,87.85
2022-11-19T21:01:34.581Z,88.31
2022-11-19T21:04:01.574Z,88.52
2022-11-19T21:06:28.640Z,88.27
2022-11-19T21:08:55.995Z,88.40
2022-11-19T21:11:22.664Z,88.30
2022-11-19T21:13:49.463Z,88.66
2022-11-19T21:16:24.054Z,88.53
2022-11-19T21:18:51.308Z,88.72
2022-11-19T21:21:19.705Z,88.85
2022-11-19T21:23:46.746Z,88.53
2022-11-19T21:26:19.775Z,88.99
2022-11-19T21:28:49.342Z,88.86
2022-11-19T21:31:18.122Z,89.18
2022-11-19T21:33:44.724Z,89.20
2022-11-19T21:36:12.500Z,89.56
2022-11-19T21:38:39.492Z,89.25
2022-11-19T21:41:07.028Z,89.50
2022-11-19T21:43:33.930Z,89.49
2022-11-19T21:46:00.541Z,89.69
2022-11-19T21:48:27.290Z,89.69
2022-11-19T21:50:54.289Z,89.47
2022-11-19T21:53:21.214Z,89.89
2022-11-19T21:55:48.403Z,89.94
2022-11-19T21:58:15.488Z,89.96
2022-11-19T22:00:43.892Z,89.76
2022-11-19T22:03:10.630Z,89.82
2022-11-19T22:05:37.203Z,89.27
2022-11-19T22:08:03.940Z,89.81
2022-11-19T22:10:30.719Z,89.80
2022-11-19T22:13:00.122Z,89.76
2022-11-19T22:15:27.189Z,89.65
2022-11-19T22:17:54.842Z,89.95
2022-11-19T22:20:21.818Z,89.53
2022-11-19T22:22:48.420Z,89.49
2022-11-19T22:25:15.319Z,89.78
2022-11-19T22:27:42.034Z,89.40
2022-11-19T22:30:10.055Z,89.14
2022-11-19T22:32:37.038Z,89.21
2022-11-19T22:35:04.911Z,89.14
2022-11-19T22:37:31.980Z,89.62
2022-11-19T22:39:58.646Z,89.54
2022-11-19T22:42:25.365Z,89.36
2022-11-19T22:44:52.373Z,89.50
2022-11-19T22:47:19.070Z,89.42
2022-11-19T22:49:45.647Z,89.57
2022-11-19T22:52:14.570Z,89.31
2022-11-19T22:54:41.967Z,89.29
2022-11-19T22:57:09.698Z,89.69
2022-11-19T22:59:36.760Z,89.76
2022-11-19T23:02:03.827Z,89.49
2022-11-19T23:04:30.484Z,89.51
2022-11-19T23:06:57.238Z,89.14
2022-11-19T23:09:24.239Z,89.32
2022-11-19T23:12:09.833Z,88.64
2022-11-19T23:14:36.655Z,88.86
2022-11-19T23:17:04.430Z,88.35
2022-11-19T23:19:31.204Z,88.33
2022-11-19T23:21:57.877Z,88.33
2022-11-19T23:24:24.499Z,88.06
2022-11-19T23:26:51.103Z,88.00
2022-11-19T23:29:17.880Z,87.82
2022-11-19T23:31:44.728Z,87.58
2022-11-19T23:34:11.840Z,87.77
2022-11-19T23:36:40.486Z,87.44
2022-11-19T23:39:12.701Z,87.30
2022-11-19T23:41:39.524Z,86.94
2022-11-19T23:44:06.210Z,86.97
2022-11-19T23:46:34.897Z,87.10
2022-11-19T23:49:03.187Z,87.09
2022-11-19T23:51:32.548Z,86.30
2022-11-19T23:53:59.313Z,86.50
2022-11-19T23:56:26.895Z,86.12
2022-11-19T23:58:53.835Z,86.39
